sensor_id;sensor_type;location;lat;lon;timestamp;P1;durP1;ratioP1;P2;durP2;ratioP2
19505;SDS011;9894;50.852;-0.140;2023-06-22T00:00:52;0.00;;;0.00;;
19505;SDS011;9894;50.852;-0.140;2023-06-22T00:03:18;0.10;;;0.10;;
19505;SDS011;9894;50.852;-0.140;2023-06-22T00:05:45;0.08;;;0.08;;
19505;SDS011;9894;50.852;-0.140;2023-06-22T00:08:11;0.00;;;0.00;;
19505;SDS011;9894;50.852;-0.140;2023-06-22T00:10:38;0.00;;;0.00;;
19505;SDS011;9894;50.852;-0.140;2023-06-22T00:13:05;0.10;;;0.10;;
19505;SDS011;9894;50.852;-0.140;2023-06-22T00:15:32;0.10;;;0.10;;
19505;SDS011;9894;50.852;-0.140;2023-06-22T00:17:58;0.10;;;0.10;;
19505;SDS011;9894;50.852;-0.140;2023-06-22T00:20:25;0.10;;;0.10;;
19505;SDS011;9894;50.852;-0.140;2023-06-22T00:22:58;0.10;;;0.10;;
19505;SDS011;9894;50.852;-0.140;2023-06-22T00:25:24;0.00;;;0.00;;
19505;SDS011;9894;50.852;-0.140;2023-06-22T00:27:50;0.10;;;0.10;;
19505;SDS011;9894;50.852;-0.140;2023-06-22T00:30:16;0.10;;;0.10;;
19505;SDS011;9894;50.852;-0.140;2023-06-22T00:32:43;0.10;;;0.10;;
19505;SDS011;9894;50.852;-0.140;2023-06-22T00:35:09;0.10;;;0.10;;
19505;SDS011;9894;50.852;-0.140;2023-06-22T00:37:36;0.08;;;0.08;;
19505;SDS011;9894;50.852;-0.140;2023-06-22T00:40:03;0.10;;;0.10;;
19505;SDS011;9894;50.852;-0.140;2023-06-22T00:42:30;0.10;;;0.10;;
19505;SDS011;9894;50.852;-0.140;2023-06-22T00:44:56;0.10;;;0.10;;
19505;SDS011;9894;50.852;-0.140;2023-06-22T00:47:22;0.17;;;0.17;;
19505;SDS011;9894;50.852;-0.140;2023-06-22T00:49:49;0.80;;;0.75;;
19505;SDS011;9894;50.852;-0.140;2023-06-22T00:52:21;0.10;;;0.10;;
19505;SDS011;9894;50.852;-0.140;2023-06-22T00:54:51;0.00;;;0.00;;
19505;SDS011;9894;50.852;-0.140;2023-06-22T00:57:17;0.08;;;0.08;;
19505;SDS011;9894;50.852;-0.140;2023-06-22T00:59:48;2.30;;;0.90;;
19505;SDS011;9894;50.852;-0.140;2023-06-22T01:02:14;0.10;;;0.10;;
19505;SDS011;9894;50.852;-0.140;2023-06-22T01:04:40;0.10;;;0.10;;
19505;SDS011;9894;50.852;-0.140;2023-06-22T01:09:59;0.10;;;0.10;;
19505;SDS011;9894;50.852;-0.140;2023-06-22T01:12:29;0.10;;;0.10;;
19505;SDS011;9894;50.852;-0.140;2023-06-22T01:17:50;0.15;;;0.15;;
19505;SDS011;9894;50.852;-0.140;2023-06-22T01:20:18;0.10;;;0.10;;
19505;SDS011;9894;50.852;-0.140;2023-06-22T01:25:26;0.10;;;0.10;;
19505;SDS011;9894;50.852;-0.140;2023-06-22T01:30:40;0.47;;;0.47;;
19505;SDS011;9894;50.852;-0.140;2023-06-22T01:33:07;0.10;;;0.10;;
19505;SDS011;9894;50.852;-0.140;2023-06-22T01:35:35;0.10;;;0.10;;
19505;SDS011;9894;50.852;-0.140;2023-06-22T01:38:01;0.10;;;0.10;;
19505;SDS011;9894;50.852;-0.140;2023-06-22T01:40:27;0.10;;;0.10;;
19505;SDS011;9894;50.852;-0.140;2023-06-22T01:42:53;0.03;;;0.03;;
19505;SDS011;9894;50.852;-0.140;2023-06-22T01:45:20;0.10;;;0.10;;
19505;SDS011;9894;50.852;-0.140;2023-06-22T01:47:47;0.10;;;0.10;;
19505;SDS011;9894;50.852;-0.140;2023-06-22T01:50:13;0.10;;;0.10;;
19505;SDS011;9894;50.852;-0.140;2023-06-22T01:52:40;0.10;;;0.10;;
19505;SDS011;9894;50.852;-0.140;2023-06-22T01:55:06;0.10;;;0.10;;
19505;SDS011;9894;50.852;-0.140;2023-06-22T01:57:33;0.10;;;0.10;;
19505;SDS011;9894;50.852;-0.140;2023-06-22T02:00:00;0.10;;;0.10;;
19505;SDS011;9894;50.852;-0.140;2023-06-22T02:03:11;0.10;;;0.10;;
19505;SDS011;9894;50.852;-0.140;2023-06-22T02:05:17;0.10;;;0.10;;
19505;SDS011;9894;50.852;-0.140;2023-06-22T02:07:45;0.00;;;0.00;;
19505;SDS011;9894;50.852;-0.140;2023-06-22T02:10:12;0.03;;;0.03;;
19505;SDS011;9894;50.852;-0.140;2023-06-22T02:12:39;0.10;;;0.10;;
19505;SDS011;9894;50.852;-0.140;2023-06-22T02:15:08;0.10;;;0.10;;
19505;SDS011;9894;50.852;-0.140;2023-06-22T02:17:35;0.10;;;0.10;;
19505;SDS011;9894;50.852;-0.140;2023-06-22T02:20:04;0.10;;;0.10;;
19505;SDS011;9894;50.852;-0.140;2023-06-22T02:22:32;0.10;;;0.10;;
19505;SDS011;9894;50.852;-0.140;2023-06-22T02:24:58;0.10;;;0.10;;
19505;SDS011;9894;50.852;-0.140;2023-06-22T02:27:25;0.10;;;0.10;;
19505;SDS011;9894;50.852;-0.140;2023-06-22T02:29:51;0.10;;;0.10;;
19505;SDS011;9894;50.852;-0.140;2023-06-22T02:32:17;0.00;;;0.00;;
19505;SDS011;9894;50.852;-0.140;2023-06-22T02:34:43;0.10;;;0.10;;
19505;SDS011;9894;50.852;-0.140;2023-06-22T02:37:13;0.70;;;0.38;;
19505;SDS011;9894;50.852;-0.140;2023-06-22T02:39:42;0.10;;;0.10;;
19505;SDS011;9894;50.852;-0.140;2023-06-22T02:42:08;0.10;;;0.10;;
19505;SDS011;9894;50.852;-0.140;2023-06-22T02:44:37;0.10;;;0.10;;
19505;SDS011;9894;50.852;-0.140;2023-06-22T02:47:04;0.10;;;0.10;;
19505;SDS011;9894;50.852;-0.140;2023-06-22T02:49:30;0.10;;;0.10;;
19505;SDS011;9894;50.852;-0.140;2023-06-22T02:51:56;0.10;;;0.10;;
19505;SDS011;9894;50.852;-0.140;2023-06-22T02:54:22;0.10;;;0.10;;
19505;SDS011;9894;50.852;-0.140;2023-06-22T02:56:49;0.10;;;0.10;;
19505;SDS011;9894;50.852;-0.140;2023-06-22T02:59:16;0.10;;;0.10;;
19505;SDS011;9894;50.852;-0.140;2023-06-22T03:01:42;0.10;;;0.10;;
19505;SDS011;9894;50.852;-0.140;2023-06-22T03:04:11;0.10;;;0.10;;
19505;SDS011;9894;50.852;-0.140;2023-06-22T03:06:37;0.10;;;0.10;;
19505;SDS011;9894;50.852;-0.140;2023-06-22T03:09:06;0.10;;;0.10;;
19505;SDS011;9894;50.852;-0.140;2023-06-22T03:11:33;0.10;;;0.10;;
19505;SDS011;9894;50.852;-0.140;2023-06-22T03:13:59;0.10;;;0.10;;
19505;SDS011;9894;50.852;-0.140;2023-06-22T03:16:25;0.10;;;0.10;;
19505;SDS011;9894;50.852;-0.140;2023-06-22T03:18:52;0.00;;;0.00;;
19505;SDS011;9894;50.852;-0.140;2023-06-22T03:21:19;0.00;;;0.00;;
19505;SDS011;9894;50.852;-0.140;2023-06-22T03:23:45;0.10;;;0.10;;
19505;SDS011;9894;50.852;-0.140;2023-06-22T03:26:11;0.10;;;0.10;;
19505;SDS011;9894;50.852;-0.140;2023-06-22T03:28:38;0.10;;;0.10;;
19505;SDS011;9894;50.852;-0.140;2023-06-22T03:31:04;0.10;;;0.10;;
19505;SDS011;9894;50.852;-0.140;2023-06-22T03:33:32;0.10;;;0.10;;
19505;SDS011;9894;50.852;-0.140;2023-06-22T03:35:58;0.10;;;0.10;;
19505;SDS011;9894;50.852;-0.140;2023-06-22T03:38:24;0.10;;;0.10;;
19505;SDS011;9894;50.852;-0.140;2023-06-22T03:40:53;0.10;;;0.10;;
19505;SDS011;9894;50.852;-0.140;2023-06-22T03:43:19;0.10;;;0.10;;
19505;SDS011;9894;50.852;-0.140;2023-06-22T03:45:45;0.10;;;0.10;;
19505;SDS011;9894;50.852;-0.140;2023-06-22T03:48:12;0.00;;;0.00;;
19505;SDS011;9894;50.852;-0.140;2023-06-22T03:50:38;0.10;;;0.10;;
19505;SDS011;9894;50.852;-0.140;2023-06-22T03:53:04;0.35;;;0.35;;
19505;SDS011;9894;50.852;-0.140;2023-06-22T03:55:30;0.00;;;0.00;;
19505;SDS011;9894;50.852;-0.140;2023-06-22T03:57:56;0.10;;;0.10;;
19505;SDS011;9894;50.852;-0.140;2023-06-22T04:00:23;0.10;;;0.10;;
19505;SDS011;9894;50.852;-0.140;2023-06-22T04:02:49;0.10;;;0.10;;
19505;SDS011;9894;50.852;-0.140;2023-06-22T04:05:15;0.10;;;0.10;;
19505;SDS011;9894;50.852;-0.140;2023-06-22T04:07:44;0.10;;;0.10;;
19505;SDS011;9894;50.852;-0.140;2023-06-22T04:10:10;0.10;;;0.10;;
19505;SDS011;9894;50.852;-0.140;2023-06-22T04:12:36;0.10;;;0.10;;
19505;SDS011;9894;50.852;-0.140;2023-06-22T04:15:02;0.20;;;0.20;;
19505;SDS011;9894;50.852;-0.140;2023-06-22T04:17:28;1.75;;;0.63;;
19505;SDS011;9894;50.852;-0.140;2023-06-22T04:19:55;0.10;;;0.10;;
19505;SDS011;9894;50.852;-0.140;2023-06-22T04:22:21;0.10;;;0.10;;
19505;SDS011;9894;50.852;-0.140;2023-06-22T04:24:47;0.10;;;0.10;;
19505;SDS011;9894;50.852;-0.140;2023-06-22T04:27:13;0.10;;;0.10;;
19505;SDS011;9894;50.852;-0.140;2023-06-22T04:29:39;0.80;;;0.30;;
19505;SDS011;9894;50.852;-0.140;2023-06-22T04:32:14;0.10;;;0.10;;
19505;SDS011;9894;50.852;-0.140;2023-06-22T04:34:40;0.10;;;0.10;;
19505;SDS011;9894;50.852;-0.140;2023-06-22T04:37:06;0.00;;;0.00;;
19505;SDS011;9894;50.852;-0.140;2023-06-22T04:39:33;0.08;;;0.08;;
19505;SDS011;9894;50.852;-0.140;2023-06-22T04:41:59;0.80;;;0.75;;
19505;SDS011;9894;50.852;-0.140;2023-06-22T04:44:27;0.10;;;0.10;;
19505;SDS011;9894;50.852;-0.140;2023-06-22T04:46:54;0.10;;;0.10;;
19505;SDS011;9894;50.852;-0.140;2023-06-22T04:49:29;0.10;;;0.10;;
19505;SDS011;9894;50.852;-0.140;2023-06-22T04:51:59;0.52;;;0.45;;
19505;SDS011;9894;50.852;-0.140;2023-06-22T04:54:25;0.13;;;0.13;;
19505;SDS011;9894;50.852;-0.140;2023-06-22T04:56:51;0.10;;;0.10;;
19505;SDS011;9894;50.852;-0.140;2023-06-22T04:59:23;1.17;;;0.50;;
19505;SDS011;9894;50.852;-0.140;2023-06-22T05:01:58;0.52;;;0.52;;
19505;SDS011;9894;50.852;-0.140;2023-06-22T05:04:25;0.10;;;0.10;;
19505;SDS011;9894;50.852;-0.140;2023-06-22T05:06:52;0.10;;;0.10;;
19505;SDS011;9894;50.852;-0.140;2023-06-22T05:09:19;0.10;;;0.10;;
19505;SDS011;9894;50.852;-0.140;2023-06-22T05:11:45;0.10;;;0.10;;
19505;SDS011;9894;50.852;-0.140;2023-06-22T05:14:12;0.10;;;0.10;;
19505;SDS011;9894;50.852;-0.140;2023-06-22T05:16:38;0.52;;;0.52;;
19505;SDS011;9894;50.852;-0.140;2023-06-22T05:19:04;0.10;;;0.10;;
19505;SDS011;9894;50.852;-0.140;2023-06-22T05:21:30;0.10;;;0.10;;
19505;SDS011;9894;50.852;-0.140;2023-06-22T05:23:57;0.52;;;0.52;;
19505;SDS011;9894;50.852;-0.140;2023-06-22T05:26:34;0.52;;;0.43;;
19505;SDS011;9894;50.852;-0.140;2023-06-22T05:29:01;0.10;;;0.10;;
19505;SDS011;9894;50.852;-0.140;2023-06-22T05:31:27;0.10;;;0.10;;
19505;SDS011;9894;50.852;-0.140;2023-06-22T05:33:54;0.10;;;0.10;;
19505;SDS011;9894;50.852;-0.140;2023-06-22T05:36:21;0.10;;;0.10;;
19505;SDS011;9894;50.852;-0.140;2023-06-22T05:38:50;0.40;;;0.40;;
19505;SDS011;9894;50.852;-0.140;2023-06-22T05:41:16;0.10;;;0.10;;
19505;SDS011;9894;50.852;-0.140;2023-06-22T05:43:42;0.10;;;0.10;;
19505;SDS011;9894;50.852;-0.140;2023-06-22T05:46:09;0.30;;;0.30;;
19505;SDS011;9894;50.852;-0.140;2023-06-22T05:48:35;0.10;;;0.10;;
19505;SDS011;9894;50.852;-0.140;2023-06-22T05:51:01;0.10;;;0.10;;
19505;SDS011;9894;50.852;-0.140;2023-06-22T05:53:27;0.10;;;0.10;;
19505;SDS011;9894;50.852;-0.140;2023-06-22T05:55:53;1.00;;;0.47;;
19505;SDS011;9894;50.852;-0.140;2023-06-22T05:58:19;0.20;;;0.20;;
19505;SDS011;9894;50.852;-0.140;2023-06-22T06:00:45;0.10;;;0.10;;
19505;SDS011;9894;50.852;-0.140;2023-06-22T06:03:12;0.10;;;0.10;;
19505;SDS011;9894;50.852;-0.140;2023-06-22T06:05:42;0.57;;;0.57;;
19505;SDS011;9894;50.852;-0.140;2023-06-22T06:08:08;0.10;;;0.10;;
19505;SDS011;9894;50.852;-0.140;2023-06-22T06:10:36;0.10;;;0.10;;
19505;SDS011;9894;50.852;-0.140;2023-06-22T06:13:02;0.10;;;0.10;;
19505;SDS011;9894;50.852;-0.140;2023-06-22T06:15:29;1.45;;;0.65;;
19505;SDS011;9894;50.852;-0.140;2023-06-22T06:17:56;0.57;;;0.57;;
19505;SDS011;9894;50.852;-0.140;2023-06-22T06:20:23;0.10;;;0.10;;
19505;SDS011;9894;50.852;-0.140;2023-06-22T06:22:49;0.10;;;0.10;;
19505;SDS011;9894;50.852;-0.140;2023-06-22T06:25:16;0.30;;;0.30;;
19505;SDS011;9894;50.852;-0.140;2023-06-22T06:27:43;0.40;;;0.40;;
19505;SDS011;9894;50.852;-0.140;2023-06-22T06:30:13;0.40;;;0.40;;
19505;SDS011;9894;50.852;-0.140;2023-06-22T06:32:40;0.38;;;0.38;;
19505;SDS011;9894;50.852;-0.140;2023-06-22T06:35:07;2.25;;;0.68;;
19505;SDS011;9894;50.852;-0.140;2023-06-22T06:37:36;0.10;;;0.10;;
19505;SDS011;9894;50.852;-0.140;2023-06-22T06:40:03;0.10;;;0.10;;
19505;SDS011;9894;50.852;-0.140;2023-06-22T06:42:36;0.10;;;0.10;;
19505;SDS011;9894;50.852;-0.140;2023-06-22T06:45:04;0.10;;;0.10;;
19505;SDS011;9894;50.852;-0.140;2023-06-22T06:47:36;0.10;;;0.10;;
19505;SDS011;9894;50.852;-0.140;2023-06-22T06:50:04;0.22;;;0.22;;
19505;SDS011;9894;50.852;-0.140;2023-06-22T06:52:30;0.13;;;0.13;;
19505;SDS011;9894;50.852;-0.140;2023-06-22T06:54:56;0.10;;;0.10;;
19505;SDS011;9894;50.852;-0.140;2023-06-22T06:57:22;0.10;;;0.10;;
19505;SDS011;9894;50.852;-0.140;2023-06-22T06:59:49;0.10;;;0.10;;
19505;SDS011;9894;50.852;-0.140;2023-06-22T07:02:15;0.25;;;0.25;;
19505;SDS011;9894;50.852;-0.140;2023-06-22T07:04:41;0.30;;;0.30;;
19505;SDS011;9894;50.852;-0.140;2023-06-22T07:07:07;0.10;;;0.10;;
19505;SDS011;9894;50.852;-0.140;2023-06-22T07:09:33;0.10;;;0.10;;
19505;SDS011;9894;50.852;-0.140;2023-06-22T07:11:59;0.10;;;0.10;;
19505;SDS011;9894;50.852;-0.140;2023-06-22T07:14:25;0.10;;;0.10;;
19505;SDS011;9894;50.852;-0.140;2023-06-22T07:16:52;0.10;;;0.10;;
19505;SDS011;9894;50.852;-0.140;2023-06-22T07:19:23;0.10;;;0.10;;
19505;SDS011;9894;50.852;-0.140;2023-06-22T07:21:54;0.10;;;0.10;;
19505;SDS011;9894;50.852;-0.140;2023-06-22T07:24:20;0.10;;;0.10;;
19505;SDS011;9894;50.852;-0.140;2023-06-22T07:26:50;0.25;;;0.25;;
19505;SDS011;9894;50.852;-0.140;2023-06-22T07:29:17;0.10;;;0.10;;
19505;SDS011;9894;50.852;-0.140;2023-06-22T07:31:43;0.20;;;0.20;;
19505;SDS011;9894;50.852;-0.140;2023-06-22T07:34:09;0.10;;;0.10;;
19505;SDS011;9894;50.852;-0.140;2023-06-22T07:36:35;0.10;;;0.10;;
19505;SDS011;9894;50.852;-0.140;2023-06-22T07:39:02;0.50;;;0.50;;
19505;SDS011;9894;50.852;-0.140;2023-06-22T07:41:29;0.45;;;0.45;;
19505;SDS011;9894;50.852;-0.140;2023-06-22T07:44:02;0.10;;;0.10;;
19505;SDS011;9894;50.852;-0.140;2023-06-22T07:46:29;0.10;;;0.10;;
19505;SDS011;9894;50.852;-0.140;2023-06-22T07:48:55;0.10;;;0.10;;
19505;SDS011;9894;50.852;-0.140;2023-06-22T07:51:22;0.20;;;0.20;;
19505;SDS011;9894;50.852;-0.140;2023-06-22T07:53:48;0.10;;;0.10;;
19505;SDS011;9894;50.852;-0.140;2023-06-22T07:56:15;0.10;;;0.10;;
19505;SDS011;9894;50.852;-0.140;2023-06-22T07:58:45;0.10;;;0.10;;
19505;SDS011;9894;50.852;-0.140;2023-06-22T08:01:11;0.10;;;0.10;;
19505;SDS011;9894;50.852;-0.140;2023-06-22T08:03:37;0.10;;;0.10;;
19505;SDS011;9894;50.852;-0.140;2023-06-22T08:06:04;0.10;;;0.10;;
19505;SDS011;9894;50.852;-0.140;2023-06-22T08:08:31;1.80;;;1.33;;
19505;SDS011;9894;50.852;-0.140;2023-06-22T08:10:57;0.20;;;0.20;;
19505;SDS011;9894;50.852;-0.140;2023-06-22T08:13:23;2.35;;;1.60;;
19505;SDS011;9894;50.852;-0.140;2023-06-22T08:15:49;0.10;;;0.10;;
19505;SDS011;9894;50.852;-0.140;2023-06-22T08:18:15;0.10;;;0.10;;
19505;SDS011;9894;50.852;-0.140;2023-06-22T08:20:41;0.10;;;0.10;;
19505;SDS011;9894;50.852;-0.140;2023-06-22T08:23:08;0.10;;;0.10;;
19505;SDS011;9894;50.852;-0.140;2023-06-22T08:25:34;0.40;;;0.40;;
19505;SDS011;9894;50.852;-0.140;2023-06-22T08:28:01;0.20;;;0.20;;
19505;SDS011;9894;50.852;-0.140;2023-06-22T08:30:27;0.35;;;0.35;;
19505;SDS011;9894;50.852;-0.140;2023-06-22T08:32:53;0.10;;;0.10;;
19505;SDS011;9894;50.852;-0.140;2023-06-22T08:35:24;7.18;;;2.88;;
19505;SDS011;9894;50.852;-0.140;2023-06-22T08:37:53;0.70;;;0.52;;
19505;SDS011;9894;50.852;-0.140;2023-06-22T08:40:21;0.10;;;0.10;;
19505;SDS011;9894;50.852;-0.140;2023-06-22T08:42:49;0.10;;;0.10;;
19505;SDS011;9894;50.852;-0.140;2023-06-22T08:45:15;0.80;;;0.55;;
19505;SDS011;9894;50.852;-0.140;2023-06-22T08:47:41;0.20;;;0.20;;
19505;SDS011;9894;50.852;-0.140;2023-06-22T08:50:11;0.20;;;0.20;;
19505;SDS011;9894;50.852;-0.140;2023-06-22T08:52:38;0.20;;;0.20;;
19505;SDS011;9894;50.852;-0.140;2023-06-22T08:55:06;0.20;;;0.20;;
19505;SDS011;9894;50.852;-0.140;2023-06-22T08:57:33;0.60;;;0.60;;
19505;SDS011;9894;50.852;-0.140;2023-06-22T09:00:02;0.85;;;0.70;;
19505;SDS011;9894;50.852;-0.140;2023-06-22T09:02:33;0.30;;;0.30;;
19505;SDS011;9894;50.852;-0.140;2023-06-22T09:05:02;0.20;;;0.20;;
19505;SDS011;9894;50.852;-0.140;2023-06-22T09:07:29;0.20;;;0.20;;
19505;SDS011;9894;50.852;-0.140;2023-06-22T09:09:55;0.20;;;0.20;;
19505;SDS011;9894;50.852;-0.140;2023-06-22T09:12:21;0.40;;;0.40;;
19505;SDS011;9894;50.852;-0.140;2023-06-22T09:14:50;0.20;;;0.20;;
19505;SDS011;9894;50.852;-0.140;2023-06-22T09:17:17;0.22;;;0.22;;
19505;SDS011;9894;50.852;-0.140;2023-06-22T09:19:43;0.40;;;0.40;;
19505;SDS011;9894;50.852;-0.140;2023-06-22T09:22:09;0.60;;;0.60;;
19505;SDS011;9894;50.852;-0.140;2023-06-22T09:24:35;0.60;;;0.60;;
19505;SDS011;9894;50.852;-0.140;2023-06-22T09:27:01;0.70;;;0.70;;
19505;SDS011;9894;50.852;-0.140;2023-06-22T09:29:28;1.20;;;1.20;;
19505;SDS011;9894;50.852;-0.140;2023-06-22T09:31:54;2.40;;;2.30;;
19505;SDS011;9894;50.852;-0.140;2023-06-22T09:34:21;8.80;;;8.20;;
19505;SDS011;9894;50.852;-0.140;2023-06-22T09:36:47;12.00;;;11.20;;
19505;SDS011;9894;50.852;-0.140;2023-06-22T09:39:13;12.48;;;11.68;;
19505;SDS011;9894;50.852;-0.140;2023-06-22T09:41:39;13.57;;;12.68;;
19505;SDS011;9894;50.852;-0.140;2023-06-22T09:44:05;13.75;;;12.85;;
19505;SDS011;9894;50.852;-0.140;2023-06-22T09:46:31;11.50;;;10.70;;
19505;SDS011;9894;50.852;-0.140;2023-06-22T09:48:57;12.25;;;11.45;;
19505;SDS011;9894;50.852;-0.140;2023-06-22T09:51:23;9.35;;;8.75;;
19505;SDS011;9894;50.852;-0.140;2023-06-22T09:53:50;9.00;;;8.40;;
19505;SDS011;9894;50.852;-0.140;2023-06-22T09:56:17;8.60;;;8.00;;
19505;SDS011;9894;50.852;-0.140;2023-06-22T09:58:44;9.40;;;8.80;;
19505;SDS011;9894;50.852;-0.140;2023-06-22T10:01:11;8.70;;;8.10;;
19505;SDS011;9894;50.852;-0.140;2023-06-22T10:03:39;9.10;;;8.50;;
19505;SDS011;9894;50.852;-0.140;2023-06-22T10:06:06;8.82;;;8.23;;
19505;SDS011;9894;50.852;-0.140;2023-06-22T10:08:33;8.80;;;8.20;;
19505;SDS011;9894;50.852;-0.140;2023-06-22T10:10:59;9.32;;;8.73;;
19505;SDS011;9894;50.852;-0.140;2023-06-22T10:13:25;9.95;;;9.25;;
19505;SDS011;9894;50.852;-0.140;2023-06-22T10:15:52;12.50;;;11.63;;
19505;SDS011;9894;50.852;-0.140;2023-06-22T10:18:18;11.63;;;10.85;;
19505;SDS011;9894;50.852;-0.140;2023-06-22T10:20:48;13.48;;;12.57;;
19505;SDS011;9894;50.852;-0.140;2023-06-22T10:23:16;13.90;;;13.00;;
19505;SDS011;9894;50.852;-0.140;2023-06-22T10:25:42;12.75;;;11.95;;
19505;SDS011;9894;50.852;-0.140;2023-06-22T10:28:09;11.82;;;11.02;;
19505;SDS011;9894;50.852;-0.140;2023-06-22T10:30:35;14.35;;;13.35;;
19505;SDS011;9894;50.852;-0.140;2023-06-22T10:33:01;14.00;;;13.00;;
19505;SDS011;9894;50.852;-0.140;2023-06-22T10:35:27;12.13;;;11.32;;
19505;SDS011;9894;50.852;-0.140;2023-06-22T10:37:54;12.13;;;11.32;;
19505;SDS011;9894;50.852;-0.140;2023-06-22T10:40:21;12.98;;;12.18;;
19505;SDS011;9894;50.852;-0.140;2023-06-22T10:42:47;14.25;;;12.43;;
19505;SDS011;9894;50.852;-0.140;2023-06-22T10:45:15;13.25;;;12.35;;
19505;SDS011;9894;50.852;-0.140;2023-06-22T10:47:41;12.20;;;11.40;;
19505;SDS011;9894;50.852;-0.140;2023-06-22T10:50:07;14.23;;;13.23;;
19505;SDS011;9894;50.852;-0.140;2023-06-22T10:52:34;12.32;;;11.43;;
19505;SDS011;9894;50.852;-0.140;2023-06-22T10:55:00;11.50;;;10.70;;
19505;SDS011;9894;50.852;-0.140;2023-06-22T10:57:26;12.40;;;11.60;;
19505;SDS011;9894;50.852;-0.140;2023-06-22T10:59:52;13.90;;;12.90;;
19505;SDS011;9894;50.852;-0.140;2023-06-22T11:02:18;13.00;;;12.10;;
19505;SDS011;9894;50.852;-0.140;2023-06-22T11:04:45;11.32;;;10.20;;
19505;SDS011;9894;50.852;-0.140;2023-06-22T11:07:12;11.30;;;10.40;;
19505;SDS011;9894;50.852;-0.140;2023-06-22T11:09:39;13.35;;;12.35;;
19505;SDS011;9894;50.852;-0.140;2023-06-22T11:12:05;10.50;;;9.70;;
19505;SDS011;9894;50.852;-0.140;2023-06-22T11:14:31;12.00;;;11.20;;
19505;SDS011;9894;50.852;-0.140;2023-06-22T11:16:58;13.40;;;12.50;;
19505;SDS011;9894;50.852;-0.140;2023-06-22T11:19:25;12.15;;;11.07;;
19505;SDS011;9894;50.852;-0.140;2023-06-22T11:21:51;12.10;;;11.30;;
19505;SDS011;9894;50.852;-0.140;2023-06-22T11:24:17;10.70;;;10.00;;
19505;SDS011;9894;50.852;-0.140;2023-06-22T11:26:43;12.30;;;11.40;;
19505;SDS011;9894;50.852;-0.140;2023-06-22T11:29:10;12.25;;;11.45;;
19505;SDS011;9894;50.852;-0.140;2023-06-22T11:31:36;10.80;;;10.10;;
19505;SDS011;9894;50.852;-0.140;2023-06-22T11:34:03;10.68;;;9.95;;
19505;SDS011;9894;50.852;-0.140;2023-06-22T11:36:29;12.30;;;11.30;;
19505;SDS011;9894;50.852;-0.140;2023-06-22T11:38:58;12.48;;;11.68;;
19505;SDS011;9894;50.852;-0.140;2023-06-22T11:41:24;10.60;;;9.90;;
19505;SDS011;9894;50.852;-0.140;2023-06-22T11:43:50;11.75;;;10.95;;
19505;SDS011;9894;50.852;-0.140;2023-06-22T11:46:16;12.00;;;11.20;;
19505;SDS011;9894;50.852;-0.140;2023-06-22T11:48:42;10.57;;;9.88;;
19505;SDS011;9894;50.852;-0.140;2023-06-22T11:51:08;11.68;;;10.88;;
19505;SDS011;9894;50.852;-0.140;2023-06-22T11:53:35;12.32;;;11.52;;
19505;SDS011;9894;50.852;-0.140;2023-06-22T11:56:01;11.70;;;10.90;;
19505;SDS011;9894;50.852;-0.140;2023-06-22T11:58:27;11.00;;;10.30;;
19505;SDS011;9894;50.852;-0.140;2023-06-22T12:00:53;10.15;;;9.45;;
19505;SDS011;9894;50.852;-0.140;2023-06-22T12:03:19;10.98;;;10.27;;
19505;SDS011;9894;50.852;-0.140;2023-06-22T12:05:49;10.90;;;10.10;;
19505;SDS011;9894;50.852;-0.140;2023-06-22T12:08:16;10.20;;;9.40;;
19505;SDS011;9894;50.852;-0.140;2023-06-22T12:10:43;12.35;;;11.40;;
19505;SDS011;9894;50.852;-0.140;2023-06-22T12:13:09;11.48;;;10.68;;
19505;SDS011;9894;50.852;-0.140;2023-06-22T12:15:35;11.75;;;10.95;;
19505;SDS011;9894;50.852;-0.140;2023-06-22T12:18:01;8.82;;;8.23;;
19505;SDS011;9894;50.852;-0.140;2023-06-22T12:20:27;9.20;;;8.60;;
19505;SDS011;9894;50.852;-0.140;2023-06-22T12:23:00;9.48;;;8.63;;
19505;SDS011;9894;50.852;-0.140;2023-06-22T12:25:26;10.00;;;9.30;;
19505;SDS011;9894;50.852;-0.140;2023-06-22T12:27:52;10.68;;;9.98;;
19505;SDS011;9894;50.852;-0.140;2023-06-22T12:30:19;9.90;;;9.20;;
19505;SDS011;9894;50.852;-0.140;2023-06-22T12:32:46;9.63;;;8.93;;
19505;SDS011;9894;50.852;-0.140;2023-06-22T12:35:12;8.60;;;8.00;;
19505;SDS011;9894;50.852;-0.140;2023-06-22T12:37:41;8.73;;;8.13;;
19505;SDS011;9894;50.852;-0.140;2023-06-22T12:40:13;8.57;;;7.97;;
19505;SDS011;9894;50.852;-0.140;2023-06-22T12:42:44;9.45;;;7.93;;
19505;SDS011;9894;50.852;-0.140;2023-06-22T12:45:10;7.95;;;7.45;;
19505;SDS011;9894;50.852;-0.140;2023-06-22T12:47:36;7.47;;;6.97;;
19505;SDS011;9894;50.852;-0.140;2023-06-22T12:50:03;8.43;;;7.82;;
19505;SDS011;9894;50.852;-0.140;2023-06-22T12:52:35;8.98;;;8.35;;
19505;SDS011;9894;50.852;-0.140;2023-06-22T12:55:14;7.70;;;7.15;;
19505;SDS011;9894;50.852;-0.140;2023-06-22T12:57:41;8.93;;;8.23;;
19505;SDS011;9894;50.852;-0.140;2023-06-22T13:00:07;8.85;;;8.15;;
19505;SDS011;9894;50.852;-0.140;2023-06-22T13:02:35;8.10;;;7.60;;
19505;SDS011;9894;50.852;-0.140;2023-06-22T13:05:05;6.80;;;6.30;;
19505;SDS011;9894;50.852;-0.140;2023-06-22T13:07:34;7.10;;;6.60;;
19505;SDS011;9894;50.852;-0.140;2023-06-22T13:10:04;8.63;;;7.93;;
19505;SDS011;9894;50.852;-0.140;2023-06-22T13:12:30;8.13;;;7.63;;
19505;SDS011;9894;50.852;-0.140;2023-06-22T13:15:00;7.63;;;7.13;;
19505;SDS011;9894;50.852;-0.140;2023-06-22T13:17:28;8.00;;;7.50;;
19505;SDS011;9894;50.852;-0.140;2023-06-22T13:19:55;7.28;;;6.78;;
19505;SDS011;9894;50.852;-0.140;2023-06-22T13:24:56;6.97;;;6.53;;
19505;SDS011;9894;50.852;-0.140;2023-06-22T13:27:22;7.45;;;6.95;;
19505;SDS011;9894;50.852;-0.140;2023-06-22T13:29:48;6.57;;;6.18;;
19505;SDS011;9894;50.852;-0.140;2023-06-22T13:32:15;6.95;;;6.45;;
19505;SDS011;9894;50.852;-0.140;2023-06-22T13:34:41;6.80;;;6.40;;
19505;SDS011;9894;50.852;-0.140;2023-06-22T13:37:08;6.28;;;5.88;;
19505;SDS011;9894;50.852;-0.140;2023-06-22T13:39:34;6.32;;;5.80;;
19505;SDS011;9894;50.852;-0.140;2023-06-22T13:42:00;6.53;;;6.13;;
19505;SDS011;9894;50.852;-0.140;2023-06-22T13:44:26;6.50;;;6.00;;
19505;SDS011;9894;50.852;-0.140;2023-06-22T13:46:57;6.40;;;6.00;;
19505;SDS011;9894;50.852;-0.140;2023-06-22T13:49:23;6.10;;;5.70;;
19505;SDS011;9894;50.852;-0.140;2023-06-22T13:51:49;5.95;;;5.55;;
19505;SDS011;9894;50.852;-0.140;2023-06-22T13:54:16;6.05;;;5.65;;
19505;SDS011;9894;50.852;-0.140;2023-06-22T13:56:42;7.40;;;6.90;;
19505;SDS011;9894;50.852;-0.140;2023-06-22T13:59:09;6.63;;;6.22;;
19505;SDS011;9894;50.852;-0.140;2023-06-22T14:01:36;7.57;;;6.85;;
19505;SDS011;9894;50.852;-0.140;2023-06-22T14:04:04;6.03;;;5.63;;
19505;SDS011;9894;50.852;-0.140;2023-06-22T14:06:30;7.07;;;6.57;;
19505;SDS011;9894;50.852;-0.140;2023-06-22T14:08:56;6.32;;;5.93;;
19505;SDS011;9894;50.852;-0.140;2023-06-22T14:11:24;8.90;;;8.13;;
19505;SDS011;9894;50.852;-0.140;2023-06-22T14:13:53;6.93;;;6.53;;
19505;SDS011;9894;50.852;-0.140;2023-06-22T14:16:19;6.97;;;6.47;;
19505;SDS011;9894;50.852;-0.140;2023-06-22T14:18:49;6.82;;;6.32;;
19505;SDS011;9894;50.852;-0.140;2023-06-22T14:21:15;7.32;;;6.82;;
19505;SDS011;9894;50.852;-0.140;2023-06-22T14:23:41;6.32;;;5.93;;
19505;SDS011;9894;50.852;-0.140;2023-06-22T14:26:17;7.47;;;6.88;;
19505;SDS011;9894;50.852;-0.140;2023-06-22T14:28:49;7.10;;;6.60;;
19505;SDS011;9894;50.852;-0.140;2023-06-22T14:31:24;8.82;;;6.70;;
19505;SDS011;9894;50.852;-0.140;2023-06-22T14:33:53;6.75;;;6.35;;
19505;SDS011;9894;50.852;-0.140;2023-06-22T14:36:20;7.57;;;6.95;;
19505;SDS011;9894;50.852;-0.140;2023-06-22T14:38:46;6.15;;;5.75;;
19505;SDS011;9894;50.852;-0.140;2023-06-22T14:41:17;6.93;;;6.43;;
19505;SDS011;9894;50.852;-0.140;2023-06-22T14:43:47;7.38;;;6.88;;
19505;SDS011;9894;50.852;-0.140;2023-06-22T14:46:14;7.80;;;7.30;;
19505;SDS011;9894;50.852;-0.140;2023-06-22T14:48:43;6.45;;;6.05;;
19505;SDS011;9894;50.852;-0.140;2023-06-22T14:51:10;6.50;;;6.10;;
19505;SDS011;9894;50.852;-0.140;2023-06-22T14:53:40;7.47;;;6.78;;
19505;SDS011;9894;50.852;-0.140;2023-06-22T14:56:06;6.88;;;6.28;;